sensor_id;sensor_type;location;lat;lon;timestamp;temperature;humidity
13052;DHT22;6592;47.484;9.726;2023-04-29T00:00:19;13.20;99.90
13052;DHT22;6592;47.484;9.726;2023-04-29T00:02:47;13.10;99.90
13052;DHT22;6592;47.484;9.726;2023-04-29T00:05:16;13.10;99.90
13052;DHT22;6592;47.484;9.726;2023-04-29T00:07:45;13.20;99.90
13052;DHT22;6592;47.484;9.726;2023-04-29T00:10:14;13.20;99.90
13052;DHT22;6592;47.484;9.726;2023-04-29T00:12:43;13.20;99.90
13052;DHT22;6592;47.484;9.726;2023-04-29T00:15:11;13.20;99.90
13052;DHT22;6592;47.484;9.726;2023-04-29T00:17:39;13.10;99.90
13052;DHT22;6592;47.484;9.726;2023-04-29T00:20:09;13.10;99.90
13052;DHT22;6592;47.484;9.726;2023-04-29T00:22:37;13.10;99.90
13052;DHT22;6592;47.484;9.726;2023-04-29T00:25:07;13.10;99.90
13052;DHT22;6592;47.484;9.726;2023-04-29T00:27:37;13.10;99.90
13052;DHT22;6592;47.484;9.726;2023-04-29T00:30:06;13.10;99.90
13052;DHT22;6592;47.484;9.726;2023-04-29T00:32:35;13.10;99.90
13052;DHT22;6592;47.484;9.726;2023-04-29T00:35:04;13.10;99.90
13052;DHT22;6592;47.484;9.726;2023-04-29T00:37:32;13.10;99.90
13052;DHT22;6592;47.484;9.726;2023-04-29T00:40:00;13.20;99.90
13052;DHT22;6592;47.484;9.726;2023-04-29T00:42:31;13.30;99.90
13052;DHT22;6592;47.484;9.726;2023-04-29T00:45:01;13.30;99.90
13052;DHT22;6592;47.484;9.726;2023-04-29T00:47:29;13.30;99.90
13052;DHT22;6592;47.484;9.726;2023-04-29T00:49:57;13.30;99.90
13052;DHT22;6592;47.484;9.726;2023-04-29T00:52:29;13.30;99.90
13052;DHT22;6592;47.484;9.726;2023-04-29T00:54:58;13.30;99.90
13052;DHT22;6592;47.484;9.726;2023-04-29T00:57:26;13.30;99.90
13052;DHT22;6592;47.484;9.726;2023-04-29T00:59:56;13.30;99.90
13052;DHT22;6592;47.484;9.726;2023-04-29T01:02:26;13.20;99.90
13052;DHT22;6592;47.484;9.726;2023-04-29T01:04:55;13.30;99.90
13052;DHT22;6592;47.484;9.726;2023-04-29T01:07:29;13.30;99.90
13052;DHT22;6592;47.484;9.726;2023-04-29T01:10:02;13.30;99.90
13052;DHT22;6592;47.484;9.726;2023-04-29T01:12:39;13.20;99.90
13052;DHT22;6592;47.484;9.726;2023-04-29T01:15:15;13.20;99.90
13052;DHT22;6592;47.484;9.726;2023-04-29T01:17:49;13.20;99.90
13052;DHT22;6592;47.484;9.726;2023-04-29T01:20:20;13.20;99.90
13052;DHT22;6592;47.484;9.726;2023-04-29T01:22:49;13.20;99.90
13052;DHT22;6592;47.484;9.726;2023-04-29T01:25:19;13.20;99.90
13052;DHT22;6592;47.484;9.726;2023-04-29T01:27:51;13.20;99.90
13052;DHT22;6592;47.484;9.726;2023-04-29T01:30:30;13.20;99.90
13052;DHT22;6592;47.484;9.726;2023-04-29T01:33:05;13.20;99.90
13052;DHT22;6592;47.484;9.726;2023-04-29T01:35:44;13.30;99.90
13052;DHT22;6592;47.484;9.726;2023-04-29T01:38:24;13.30;99.90
13052;DHT22;6592;47.484;9.726;2023-04-29T01:41:04;13.30;99.90
13052;DHT22;6592;47.484;9.726;2023-04-29T01:43:36;13.30;99.90
13052;DHT22;6592;47.484;9.726;2023-04-29T01:46:08;13.30;99.90
13052;DHT22;6592;47.484;9.726;2023-04-29T01:48:37;13.30;99.90
13052;DHT22;6592;47.484;9.726;2023-04-29T01:51:05;13.30;99.90
13052;DHT22;6592;47.484;9.726;2023-04-29T01:53:33;13.40;99.90
13052;DHT22;6592;47.484;9.726;2023-04-29T01:56:03;13.30;99.90
13052;DHT22;6592;47.484;9.726;2023-04-29T01:58:32;13.20;99.90
13052;DHT22;6592;47.484;9.726;2023-04-29T02:01:00;13.10;99.90
13052;DHT22;6592;47.484;9.726;2023-04-29T02:03:28;13.10;99.90
13052;DHT22;6592;47.484;9.726;2023-04-29T02:05:56;13.10;99.90
13052;DHT22;6592;47.484;9.726;2023-04-29T02:08:25;13.10;99.90
13052;DHT22;6592;47.484;9.726;2023-04-29T02:10:53;13.10;99.90
13052;DHT22;6592;47.484;9.726;2023-04-29T02:13:23;13.10;99.90
13052;DHT22;6592;47.484;9.726;2023-04-29T02:15:51;13.10;99.90
13052;DHT22;6592;47.484;9.726;2023-04-29T02:18:20;13.10;99.90
13052;DHT22;6592;47.484;9.726;2023-04-29T02:20:48;13.10;99.90
13052;DHT22;6592;47.484;9.726;2023-04-29T02:23:17;13.10;99.90
13052;DHT22;6592;47.484;9.726;2023-04-29T02:25:45;13.10;99.90
13052;DHT22;6592;47.484;9.726;2023-04-29T02:28:15;13.10;99.90
13052;DHT22;6592;47.484;9.726;2023-04-29T02:30:45;13.20;99.90
13052;DHT22;6592;47.484;9.726;2023-04-29T02:33:13;13.20;99.90
13052;DHT22;6592;47.484;9.726;2023-04-29T02:35:41;13.20;99.90
13052;DHT22;6592;47.484;9.726;2023-04-29T02:38:10;13.20;99.90
13052;DHT22;6592;47.484;9.726;2023-04-29T02:40:41;13.30;99.90
13052;DHT22;6592;47.484;9.726;2023-04-29T02:43:09;13.30;99.90
13052;DHT22;6592;47.484;9.726;2023-04-29T02:45:38;13.30;99.90
13052;DHT22;6592;47.484;9.726;2023-04-29T02:48:08;13.30;99.90
13052;DHT22;6592;47.484;9.726;2023-04-29T02:50:37;13.30;99.90
13052;DHT22;6592;47.484;9.726;2023-04-29T02:53:05;13.30;99.90
13052;DHT22;6592;47.484;9.726;2023-04-29T02:55:33;13.40;99.90
13052;DHT22;6592;47.484;9.726;2023-04-29T02:58:01;13.40;99.90
13052;DHT22;6592;47.484;9.726;2023-04-29T03:00:30;13.40;99.90
13052;DHT22;6592;47.484;9.726;2023-04-29T03:02:58;13.40;99.90
13052;DHT22;6592;47.484;9.726;2023-04-29T03:05:29;13.40;99.90
13052;DHT22;6592;47.484;9.726;2023-04-29T03:07:57;13.40;99.90
13052;DHT22;6592;47.484;9.726;2023-04-29T03:10:25;13.50;99.90
13052;DHT22;6592;47.484;9.726;2023-04-29T03:12:54;13.40;99.90
13052;DHT22;6592;47.484;9.726;2023-04-29T03:15:22;13.50;99.90
13052;DHT22;6592;47.484;9.726;2023-04-29T03:17:50;13.40;99.90
13052;DHT22;6592;47.484;9.726;2023-04-29T03:20:19;13.40;99.90
13052;DHT22;6592;47.484;9.726;2023-04-29T03:22:48;13.40;99.90
13052;DHT22;6592;47.484;9.726;2023-04-29T03:25:16;13.40;99.90
13052;DHT22;6592;47.484;9.726;2023-04-29T03:27:45;13.40;99.90
13052;DHT22;6592;47.484;9.726;2023-04-29T03:30:13;13.30;99.90
13052;DHT22;6592;47.484;9.726;2023-04-29T03:32:41;13.20;99.90
13052;DHT22;6592;47.484;9.726;2023-04-29T03:35:09;13.20;99.90
13052;DHT22;6592;47.484;9.726;2023-04-29T03:37:41;13.20;99.90
13052;DHT22;6592;47.484;9.726;2023-04-29T03:40:12;13.20;99.90
13052;DHT22;6592;47.484;9.726;2023-04-29T03:42:41;13.20;99.90
13052;DHT22;6592;47.484;9.726;2023-04-29T03:45:10;13.20;99.90
13052;DHT22;6592;47.484;9.726;2023-04-29T03:47:39;13.20;99.90
13052;DHT22;6592;47.484;9.726;2023-04-29T03:50:07;13.10;99.90
13052;DHT22;6592;47.484;9.726;2023-04-29T03:52:36;13.10;99.90
13052;DHT22;6592;47.484;9.726;2023-04-29T03:55:05;13.10;99.90
13052;DHT22;6592;47.484;9.726;2023-04-29T03:57:34;13.10;99.90
13052;DHT22;6592;47.484;9.726;2023-04-29T04:00:03;13.10;99.90
13052;DHT22;6592;47.484;9.726;2023-04-29T04:02:31;13.00;99.90
13052;DHT22;6592;47.484;9.726;2023-04-29T04:05:01;13.10;99.90
13052;DHT22;6592;47.484;9.726;2023-04-29T04:07:29;13.10;99.90
13052;DHT22;6592;47.484;9.726;2023-04-29T04:09:57;13.10;99.90
13052;DHT22;6592;47.484;9.726;2023-04-29T04:12:26;13.10;99.90
13052;DHT22;6592;47.484;9.726;2023-04-29T04:14:55;13.10;99.90
13052;DHT22;6592;47.484;9.726;2023-04-29T04:17:24;13.10;99.90
13052;DHT22;6592;47.484;9.726;2023-04-29T04:19:53;13.00;99.90
13052;DHT22;6592;47.484;9.726;2023-04-29T04:22:21;13.10;99.90
13052;DHT22;6592;47.484;9.726;2023-04-29T04:24:49;13.00;99.90
13052;DHT22;6592;47.484;9.726;2023-04-29T04:27:18;13.00;99.90
13052;DHT22;6592;47.484;9.726;2023-04-29T04:29:46;13.00;99.90
13052;DHT22;6592;47.484;9.726;2023-04-29T04:32:15;13.00;99.90
13052;DHT22;6592;47.484;9.726;2023-04-29T04:34:43;13.00;99.90
13052;DHT22;6592;47.484;9.726;2023-04-29T04:37:12;13.00;99.90
13052;DHT22;6592;47.484;9.726;2023-04-29T04:39:40;13.10;99.90
13052;DHT22;6592;47.484;9.726;2023-04-29T04:42:08;13.10;99.90
13052;DHT22;6592;47.484;9.726;2023-04-29T04:44:36;13.10;99.90
13052;DHT22;6592;47.484;9.726;2023-04-29T04:47:04;13.10;99.90
13052;DHT22;6592;47.484;9.726;2023-04-29T04:49:34;13.20;99.90
13052;DHT22;6592;47.484;9.726;2023-04-29T04:52:02;13.20;99.90
13052;DHT22;6592;47.484;9.726;2023-04-29T04:54:31;13.20;99.90
13052;DHT22;6592;47.484;9.726;2023-04-29T04:56:59;13.20;99.90
13052;DHT22;6592;47.484;9.726;2023-04-29T04:59:30;13.10;99.90
13052;DHT22;6592;47.484;9.726;2023-04-29T05:01:59;13.20;99.90
13052;DHT22;6592;47.484;9.726;2023-04-29T05:04:27;13.20;99.90
13052;DHT22;6592;47.484;9.726;2023-04-29T05:06:57;13.30;99.90
13052;DHT22;6592;47.484;9.726;2023-04-29T05:09:25;13.20;99.90
13052;DHT22;6592;47.484;9.726;2023-04-29T05:11:53;13.20;99.90
13052;DHT22;6592;47.484;9.726;2023-04-29T05:14:22;13.20;99.90
13052;DHT22;6592;47.484;9.726;2023-04-29T05:16:50;13.30;99.90
13052;DHT22;6592;47.484;9.726;2023-04-29T05:19:18;13.30;99.90
13052;DHT22;6592;47.484;9.726;2023-04-29T05:21:47;13.40;99.90
13052;DHT22;6592;47.484;9.726;2023-04-29T05:24:16;13.30;99.90
13052;DHT22;6592;47.484;9.726;2023-04-29T05:26:44;13.40;99.90
13052;DHT22;6592;47.484;9.726;2023-04-29T05:29:13;13.30;99.90
13052;DHT22;6592;47.484;9.726;2023-04-29T05:31:41;13.30;99.90
13052;DHT22;6592;47.484;9.726;2023-04-29T05:34:09;13.30;99.90
13052;DHT22;6592;47.484;9.726;2023-04-29T05:36:38;13.30;99.90
13052;DHT22;6592;47.484;9.726;2023-04-29T05:39:06;13.40;99.90
13052;DHT22;6592;47.484;9.726;2023-04-29T05:41:35;13.50;99.90
13052;DHT22;6592;47.484;9.726;2023-04-29T05:44:04;13.50;99.90
13052;DHT22;6592;47.484;9.726;2023-04-29T05:46:32;13.50;99.90
13052;DHT22;6592;47.484;9.726;2023-04-29T05:49:00;13.60;99.90
13052;DHT22;6592;47.484;9.726;2023-04-29T05:51:29;13.80;99.90
13052;DHT22;6592;47.484;9.726;2023-04-29T05:53:57;14.00;99.90
13052;DHT22;6592;47.484;9.726;2023-04-29T05:56:26;14.10;99.90
13052;DHT22;6592;47.484;9.726;2023-04-29T05:58:55;14.30;99.90
13052;DHT22;6592;47.484;9.726;2023-04-29T06:01:24;14.50;99.90
13052;DHT22;6592;47.484;9.726;2023-04-29T06:03:52;14.60;99.90
13052;DHT22;6592;47.484;9.726;2023-04-29T06:06:20;14.70;99.90
13052;DHT22;6592;47.484;9.726;2023-04-29T06:08:49;14.80;99.90
13052;DHT22;6592;47.484;9.726;2023-04-29T06:11:17;15.30;99.90
13052;DHT22;6592;47.484;9.726;2023-04-29T06:13:46;15.70;99.90
13052;DHT22;6592;47.484;9.726;2023-04-29T06:16:15;16.20;99.90
13052;DHT22;6592;47.484;9.726;2023-04-29T06:18:43;16.60;99.90
13052;DHT22;6592;47.484;9.726;2023-04-29T06:21:12;16.50;99.90
13052;DHT22;6592;47.484;9.726;2023-04-29T06:23:40;16.30;99.90
13052;DHT22;6592;47.484;9.726;2023-04-29T06:26:08;16.10;99.90
13052;DHT22;6592;47.484;9.726;2023-04-29T06:28:37;16.10;99.90
13052;DHT22;6592;47.484;9.726;2023-04-29T06:31:05;16.10;99.90
13052;DHT22;6592;47.484;9.726;2023-04-29T06:33:35;16.20;99.90
13052;DHT22;6592;47.484;9.726;2023-04-29T06:36:04;16.10;99.90
13052;DHT22;6592;47.484;9.726;2023-04-29T06:38:32;16.20;99.90
13052;DHT22;6592;47.484;9.726;2023-04-29T06:41:00;16.30;99.90
13052;DHT22;6592;47.484;9.726;2023-04-29T06:43:30;16.10;99.90
13052;DHT22;6592;47.484;9.726;2023-04-29T06:45:58;16.10;99.90
13052;DHT22;6592;47.484;9.726;2023-04-29T06:48:26;16.00;99.90
13052;DHT22;6592;47.484;9.726;2023-04-29T06:50:57;16.10;99.90
13052;DHT22;6592;47.484;9.726;2023-04-29T06:53:25;16.40;99.90
13052;DHT22;6592;47.484;9.726;2023-04-29T06:55:54;17.00;99.90
13052;DHT22;6592;47.484;9.726;2023-04-29T06:58:22;17.40;99.90
13052;DHT22;6592;47.484;9.726;2023-04-29T07:00:50;17.50;99.90
13052;DHT22;6592;47.484;9.726;2023-04-29T07:03:18;18.10;99.90
13052;DHT22;6592;47.484;9.726;2023-04-29T07:05:47;18.40;99.90
13052;DHT22;6592;47.484;9.726;2023-04-29T07:08:17;18.30;99.90
13052;DHT22;6592;47.484;9.726;2023-04-29T07:10:53;18.40;99.90
13052;DHT22;6592;47.484;9.726;2023-04-29T07:13:21;18.50;99.90
13052;DHT22;6592;47.484;9.726;2023-04-29T07:15:50;18.20;99.90
13052;DHT22;6592;47.484;9.726;2023-04-29T07:18:18;17.50;99.90
13052;DHT22;6592;47.484;9.726;2023-04-29T07:20:46;17.50;99.90
13052;DHT22;6592;47.484;9.726;2023-04-29T07:23:18;17.70;99.90
13052;DHT22;6592;47.484;9.726;2023-04-29T07:25:46;18.20;99.90
13052;DHT22;6592;47.484;9.726;2023-04-29T07:28:14;19.40;99.90
13052;DHT22;6592;47.484;9.726;2023-04-29T07:30:43;20.80;99.90
13052;DHT22;6592;47.484;9.726;2023-04-29T07:33:11;21.50;99.90
13052;DHT22;6592;47.484;9.726;2023-04-29T07:35:39;21.80;99.90
13052;DHT22;6592;47.484;9.726;2023-04-29T07:38:10;22.10;99.90
13052;DHT22;6592;47.484;9.726;2023-04-29T07:40:41;22.50;99.90
13052;DHT22;6592;47.484;9.726;2023-04-29T07:43:09;22.10;99.90
13052;DHT22;6592;47.484;9.726;2023-04-29T07:45:37;22.40;99.90
13052;DHT22;6592;47.484;9.726;2023-04-29T07:48:05;23.20;99.90
13052;DHT22;6592;47.484;9.726;2023-04-29T07:50:34;23.40;99.90
13052;DHT22;6592;47.484;9.726;2023-04-29T07:53:04;24.00;99.90
13052;DHT22;6592;47.484;9.726;2023-04-29T07:55:32;24.50;99.90
13052;DHT22;6592;47.484;9.726;2023-04-29T07:58:01;25.00;99.90
13052;DHT22;6592;47.484;9.726;2023-04-29T08:00:29;25.00;99.90
13052;DHT22;6592;47.484;9.726;2023-04-29T08:02:58;25.20;99.90
13052;DHT22;6592;47.484;9.726;2023-04-29T08:05:26;25.70;99.90
13052;DHT22;6592;47.484;9.726;2023-04-29T08:07:56;26.80;99.90
13052;DHT22;6592;47.484;9.726;2023-04-29T08:10:24;26.40;99.90
13052;DHT22;6592;47.484;9.726;2023-04-29T08:12:53;26.30;99.90
13052;DHT22;6592;47.484;9.726;2023-04-29T08:15:23;25.90;99.90
13052;DHT22;6592;47.484;9.726;2023-04-29T08:17:51;26.20;99.90
13052;DHT22;6592;47.484;9.726;2023-04-29T08:20:20;25.80;99.90
13052;DHT22;6592;47.484;9.726;2023-04-29T08:22:48;26.00;99.90
13052;DHT22;6592;47.484;9.726;2023-04-29T08:25:16;25.60;99.90
13052;DHT22;6592;47.484;9.726;2023-04-29T08:27:44;26.00;99.90
13052;DHT22;6592;47.484;9.726;2023-04-29T08:30:13;26.70;99.90
13052;DHT22;6592;47.484;9.726;2023-04-29T08:32:42;26.90;99.90
13052;DHT22;6592;47.484;9.726;2023-04-29T08:35:10;27.60;99.90
13052;DHT22;6592;47.484;9.726;2023-04-29T08:37:39;27.60;99.90
13052;DHT22;6592;47.484;9.726;2023-04-29T08:40:08;26.90;99.90
13052;DHT22;6592;47.484;9.726;2023-04-29T08:42:37;26.10;99.90
13052;DHT22;6592;47.484;9.726;2023-04-29T08:45:05;26.20;99.90
13052;DHT22;6592;47.484;9.726;2023-04-29T08:47:34;27.10;99.90
13052;DHT22;6592;47.484;9.726;2023-04-29T08:50:06;27.50;99.90
13052;DHT22;6592;47.484;9.726;2023-04-29T08:52:34;27.50;99.90
13052;DHT22;6592;47.484;9.726;2023-04-29T08:55:03;27.80;99.90
13052;DHT22;6592;47.484;9.726;2023-04-29T08:57:35;28.00;99.90
13052;DHT22;6592;47.484;9.726;2023-04-29T09:00:07;28.70;99.90
13052;DHT22;6592;47.484;9.726;2023-04-29T09:02:42;29.90;99.90
13052;DHT22;6592;47.484;9.726;2023-04-29T09:05:13;30.60;99.90
13052;DHT22;6592;47.484;9.726;2023-04-29T09:07:43;29.60;99.90
13052;DHT22;6592;47.484;9.726;2023-04-29T09:10:11;29.80;99.90
13052;DHT22;6592;47.484;9.726;2023-04-29T09:12:40;30.80;99.90
13052;DHT22;6592;47.484;9.726;2023-04-29T09:15:09;31.70;97.00
13052;DHT22;6592;47.484;9.726;2023-04-29T09:17:38;32.30;94.80
13052;DHT22;6592;47.484;9.726;2023-04-29T09:20:28;32.40;94.70
13052;DHT22;6592;47.484;9.726;2023-04-29T09:22:58;33.00;93.70
13052;DHT22;6592;47.484;9.726;2023-04-29T09:25:27;33.30;93.40
13052;DHT22;6592;47.484;9.726;2023-04-29T09:27:55;32.80;92.90
13052;DHT22;6592;47.484;9.726;2023-04-29T09:30:24;32.00;93.70
13052;DHT22;6592;47.484;9.726;2023-04-29T09:33:06;32.00;91.90
13052;DHT22;6592;47.484;9.726;2023-04-29T09:35:39;32.60;94.30
13052;DHT22;6592;47.484;9.726;2023-04-29T09:38:12;33.10;93.40
13052;DHT22;6592;47.484;9.726;2023-04-29T09:40:41;33.50;93.20
13052;DHT22;6592;47.484;9.726;2023-04-29T09:43:25;34.10;91.00
13052;DHT22;6592;47.484;9.726;2023-04-29T09:45:53;34.90;87.60
13052;DHT22;6592;47.484;9.726;2023-04-29T09:48:21;35.20;86.70
13052;DHT22;6592;47.484;9.726;2023-04-29T09:51:02;35.20;85.20
13052;DHT22;6592;47.484;9.726;2023-04-29T09:53:30;35.10;83.50
13052;DHT22;6592;47.484;9.726;2023-04-29T09:56:00;35.60;83.70
13052;DHT22;6592;47.484;9.726;2023-04-29T09:58:30;35.70;77.60
13052;DHT22;6592;47.484;9.726;2023-04-29T10:01:03;35.90;77.20
13052;DHT22;6592;47.484;9.726;2023-04-29T10:03:33;35.80;74.60
13052;DHT22;6592;47.484;9.726;2023-04-29T10:06:05;35.70;76.00
13052;DHT22;6592;47.484;9.726;2023-04-29T10:08:34;35.20;72.80
13052;DHT22;6592;47.484;9.726;2023-04-29T10:11:03;35.40;76.70
13052;DHT22;6592;47.484;9.726;2023-04-29T10:13:34;35.70;76.20
13052;DHT22;6592;47.484;9.726;2023-04-29T10:16:13;36.10;73.80
13052;DHT22;6592;47.484;9.726;2023-04-29T10:18:48;36.00;71.60
13052;DHT22;6592;47.484;9.726;2023-04-29T10:21:25;36.00;70.50
13052;DHT22;6592;47.484;9.726;2023-04-29T10:23:56;36.20;71.80
13052;DHT22;6592;47.484;9.726;2023-04-29T10:26:26;36.30;69.60
13052;DHT22;6592;47.484;9.726;2023-04-29T10:28:56;35.90;73.90
13052;DHT22;6592;47.484;9.726;2023-04-29T10:31:26;36.00;70.60
13052;DHT22;6592;47.484;9.726;2023-04-29T10:33:55;35.80;66.40
13052;DHT22;6592;47.484;9.726;2023-04-29T10:36:26;35.90;68.20
13052;DHT22;6592;47.484;9.726;2023-04-29T10:38:58;35.90;67.60
13052;DHT22;6592;47.484;9.726;2023-04-29T10:41:28;36.20;69.80
13052;DHT22;6592;47.484;9.726;2023-04-29T10:43:58;35.90;69.40
13052;DHT22;6592;47.484;9.726;2023-04-29T10:46:29;36.00;69.70
13052;DHT22;6592;47.484;9.726;2023-04-29T10:49:00;36.10;69.10
13052;DHT22;6592;47.484;9.726;2023-04-29T10:51:32;35.60;67.70
13052;DHT22;6592;47.484;9.726;2023-04-29T10:54:07;35.80;69.40
13052;DHT22;6592;47.484;9.726;2023-04-29T10:56:42;35.70;65.90
13052;DHT22;6592;47.484;9.726;2023-04-29T10:59:13;35.80;61.80
13052;DHT22;6592;47.484;9.726;2023-04-29T11:01:46;35.90;66.10
13052;DHT22;6592;47.484;9.726;2023-04-29T11:04:15;36.20;67.90
13052;DHT22;6592;47.484;9.726;2023-04-29T11:06:47;35.90;65.40
13052;DHT22;6592;47.484;9.726;2023-04-29T11:09:19;35.90;66.40
13052;DHT22;6592;47.484;9.726;2023-04-29T11:11:55;36.20;66.70
13052;DHT22;6592;47.484;9.726;2023-04-29T11:14:25;36.10;64.30
13052;DHT22;6592;47.484;9.726;2023-04-29T11:16:56;36.20;63.80
13052;DHT22;6592;47.484;9.726;2023-04-29T11:19:29;36.20;58.10
13052;DHT22;6592;47.484;9.726;2023-04-29T11:22:13;35.50;62.20
13052;DHT22;6592;47.484;9.726;2023-04-29T11:24:52;35.80;65.30
13052;DHT22;6592;47.484;9.726;2023-04-29T11:27:23;35.70;65.40
13052;DHT22;6592;47.484;9.726;2023-04-29T11:29:53;35.70;63.80
13052;DHT22;6592;47.484;9.726;2023-04-29T11:32:25;36.00;61.70
13052;DHT22;6592;47.484;9.726;2023-04-29T11:34:54;35.60;62.70
13052;DHT22;6592;47.484;9.726;2023-04-29T11:37:25;35.80;62.00
13052;DHT22;6592;47.484;9.726;2023-04-29T11:39:58;36.00;63.00
13052;DHT22;6592;47.484;9.726;2023-04-29T11:42:27;36.20;58.80
13052;DHT22;6592;47.484;9.726;2023-04-29T11:44:55;36.10;56.80
13052;DHT22;6592;47.484;9.726;2023-04-29T11:47:26;36.00;57.70
13052;DHT22;6592;47.484;9.726;2023-04-29T11:50:02;35.70;55.40
13052;DHT22;6592;47.484;9.726;2023-04-29T11:52:33;34.90;57.10
13052;DHT22;6592;47.484;9.726;2023-04-29T11:55:02;34.60;58.20
13052;DHT22;6592;47.484;9.726;2023-04-29T11:57:31;33.50;57.30
13052;DHT22;6592;47.484;9.726;2023-04-29T11:59:59;32.50;60.30
13052;DHT22;6592;47.484;9.726;2023-04-29T12:02:31;32.80;63.30
13052;DHT22;6592;47.484;9.726;2023-04-29T12:05:05;33.20;62.70
13052;DHT22;6592;47.484;9.726;2023-04-29T12:07:35;33.60;62.80
13052;DHT22;6592;47.484;9.726;2023-04-29T12:10:07;34.10;61.40
13052;DHT22;6592;47.484;9.726;2023-04-29T12:12:36;34.30;61.90
13052;DHT22;6592;47.484;9.726;2023-04-29T12:15:07;34.50;58.30
13052;DHT22;6592;47.484;9.726;2023-04-29T12:17:37;34.60;56.80
13052;DHT22;6592;47.484;9.726;2023-04-29T12:20:06;34.70;58.60
13052;DHT22;6592;47.484;9.726;2023-04-29T12:22:37;34.40;61.60
13052;DHT22;6592;47.484;9.726;2023-04-29T12:25:06;34.10;61.70
13052;DHT22;6592;47.484;9.726;2023-04-29T12:27:34;33.90;62.10
13052;DHT22;6592;47.484;9.726;2023-04-29T12:30:06;33.70;59.60
13052;DHT22;6592;47.484;9.726;2023-04-29T12:32:35;33.50;62.20
13052;DHT22;6592;47.484;9.726;2023-04-29T12:35:04;33.40;61.80
13052;DHT22;6592;47.484;9.726;2023-04-29T12:37:33;33.20;57.60
13052;DHT22;6592;47.484;9.726;2023-04-29T12:40:03;32.80;58.00
13052;DHT22;6592;47.484;9.726;2023-04-29T12:42:32;32.70;57.30
13052;DHT22;6592;47.484;9.726;2023-04-29T12:45:00;32.70;62.70
13052;DHT22;6592;47.484;9.726;2023-04-29T12:47:31;33.10;60.40
13052;DHT22;6592;47.484;9.726;2023-04-29T12:50:00;33.30;59.30
13052;DHT22;6592;47.484;9.726;2023-04-29T12:52:29;33.20;56.70
13052;DHT22;6592;47.484;9.726;2023-04-29T12:54:57;33.20;60.70
13052;DHT22;6592;47.484;9.726;2023-04-29T12:57:28;33.30;62.50
13052;DHT22;6592;47.484;9.726;2023-04-29T12:59:56;33.10;62.50
13052;DHT22;6592;47.484;9.726;2023-04-29T13:02:25;33.20;64.10
13052;DHT22;6592;47.484;9.726;2023-04-29T13:04:54;33.40;62.60
13052;DHT22;6592;47.484;9.726;2023-04-29T13:07:23;33.00;59.40
13052;DHT22;6592;47.484;9.726;2023-04-29T13:09:51;33.10;61.30
13052;DHT22;6592;47.484;9.726;2023-04-29T13:12:19;32.80;64.70
13052;DHT22;6592;47.484;9.726;2023-04-29T13:14:49;32.80;63.60
13052;DHT22;6592;47.484;9.726;2023-04-29T13:17:18;33.10;65.20
13052;DHT22;6592;47.484;9.726;2023-04-29T13:19:47;33.20;65.80
13052;DHT22;6592;47.484;9.726;2023-04-29T13:22:18;33.70;62.20
13052;DHT22;6592;47.484;9.726;2023-04-29T13:24:47;33.90;62.70
13052;DHT22;6592;47.484;9.726;2023-04-29T13:27:15;34.00;61.90
13052;DHT22;6592;47.484;9.726;2023-04-29T13:29:44;34.20;64.30
13052;DHT22;6592;47.484;9.726;2023-04-29T13:32:13;34.70;59.50
13052;DHT22;6592;47.484;9.726;2023-04-29T13:34:44;34.90;59.20
13052;DHT22;6592;47.484;9.726;2023-04-29T13:37:12;35.00;61.10
13052;DHT22;6592;47.484;9.726;2023-04-29T13:39:40;35.10;61.10
13052;DHT22;6592;47.484;9.726;2023-04-29T13:42:13;35.10;57.70
13052;DHT22;6592;47.484;9.726;2023-04-29T13:44:41;34.80;58.40
13052;DHT22;6592;47.484;9.726;2023-04-29T13:47:27;34.80;59.70
13052;DHT22;6592;47.484;9.726;2023-04-29T13:49:57;34.80;60.20
13052;DHT22;6592;47.484;9.726;2023-04-29T13:52:45;35.00;59.00
13052;DHT22;6592;47.484;9.726;2023-04-29T13:55:33;34.90;59.00
13052;DHT22;6592;47.484;9.726;2023-04-29T13:58:04;35.00;58.30
13052;DHT22;6592;47.484;9.726;2023-04-29T14:00:36;34.80;56.10
13052;DHT22;6592;47.484;9.726;2023-04-29T14:03:10;33.70;56.10
13052;DHT22;6592;47.484;9.726;2023-04-29T14:05:38;32.70;57.70
13052;DHT22;6592;47.484;9.726;2023-04-29T14:08:08;31.90;58.20
13052;DHT22;6592;47.484;9.726;2023-04-29T14:10:36;31.00;60.50
13052;DHT22;6592;47.484;9.726;2023-04-29T14:13:04;30.40;63.10
13052;DHT22;6592;47.484;9.726;2023-04-29T14:15:33;30.10;63.10
13052;DHT22;6592;47.484;9.726;2023-04-29T14:18:01;29.60;64.60
13052;DHT22;6592;47.484;9.726;2023-04-29T14:20:31;29.00;66.30
13052;DHT22;6592;47.484;9.726;2023-04-29T14:22:59;28.40;65.70
13052;DHT22;6592;47.484;9.726;2023-04-29T14:25:27;28.30;65.70
13052;DHT22;6592;47.484;9.726;2023-04-29T14:27:58;28.10;65.90
13052;DHT22;6592;47.484;9.726;2023-04-29T14:30:27;28.00;68.10
13052;DHT22;6592;47.484;9.726;2023-04-29T14:32:55;27.80;68.80
13052;DHT22;6592;47.484;9.726;2023-04-29T14:35:23;27.50;69.10
13052;DHT22;6592;47.484;9.726;2023-04-29T14:37:53;27.10;67.90
13052;DHT22;6592;47.484;9.726;2023-04-29T14:40:21;26.40;69.10
13052;DHT22;6592;47.484;9.726;2023-04-29T14:42:50;26.20;71.10
13052;DHT22;6592;47.484;9.726;2023-04-29T14:45:18;25.80;71.90
13052;DHT22;6592;47.484;9.726;2023-04-29T14:47:46;25.50;73.30
13052;DHT22;6592;47.484;9.726;2023-04-29T14:50:14;25.20;75.10
13052;DHT22;6592;47.484;9.726;2023-04-29T14:52:43;25.10;77.30
13052;DHT22;6592;47.484;9.726;2023-04-29T14:55:13;24.80;79.70
13052;DHT22;6592;47.484;9.726;2023-04-29T14:57:41;24.50;80.40
13052;DHT22;6592;47.484;9.726;2023-04-29T15:00:10;24.40;81.10
13052;DHT22;6592;47.484;9.726;2023-04-29T15:02:39;24.40;81.80
13052;DHT22;6592;47.484;9.726;2023-04-29T15:05:07;24.40;82.10
13052;DHT22;6592;47.484;9.726;2023-04-29T15:07:35;24.40;81.90
13052;DHT22;6592;47.484;9.726;2023-04-29T15:10:05;24.40;81.80
13052;DHT22;6592;47.484;9.726;2023-04-29T15:12:36;24.50;81.80
13052;DHT22;6592;47.484;9.726;2023-04-29T15:15:06;24.50;81.90
13052;DHT22;6592;47.484;9.726;2023-04-29T15:17:34;24.50;81.70
13052;DHT22;6592;47.484;9.726;2023-04-29T15:20:03;24.40;82.30
13052;DHT22;6592;47.484;9.726;2023-04-29T15:22:31;24.40;82.60
13052;DHT22;6592;47.484;9.726;2023-04-29T15:24:59;24.40;82.70
13052;DHT22;6592;47.484;9.726;2023-04-29T15:27:28;24.40;82.70
13052;DHT22;6592;47.484;9.726;2023-04-29T15:29:57;24.40;82.10
13052;DHT22;6592;47.484;9.726;2023-04-29T15:32:25;24.20;82.50
13052;DHT22;6592;47.484;9.726;2023-04-29T15:34:57;24.20;81.80
13052;DHT22;6592;47.484;9.726;2023-04-29T15:37:25;24.20;82.00
13052;DHT22;6592;47.484;9.726;2023-04-29T15:39:54;24.20;82.50
13052;DHT22;6592;47.484;9.726;2023-04-29T15:42:22;24.20;82.60
13052;DHT22;6592;47.484;9.726;2023-04-29T15:44:51;24.00;82.30
13052;DHT22;6592;47.484;9.726;2023-04-29T15:47:20;24.00;82.50
13052;DHT22;6592;47.484;9.726;2023-04-29T15:49:48;23.80;82.60
13052;DHT22;6592;47.484;9.726;2023-04-29T15:52:18;23.70;83.90
13052;DHT22;6592;47.484;9.726;2023-04-29T15:54:46;23.60;86.00
13052;DHT22;6592;47.484;9.726;2023-04-29T15:57:14;23.40;87.30
13052;DHT22;6592;47.484;9.726;2023-04-29T15:59:43;23.40;87.60